Captain Ed — WDF6338 — position and weather

sailwx.info

Track history (hours):
 
Tides and Currents Weather Stations Pressure Air Temp Water Temp Dewpoint Dewpoint Depression Visibility Wind Speed Wind Dir Waves Ship Positions

Captain Ed

Owner: Norfolk Dredging Company, Chesapeake, VA. More information available from US FCC via Universal Licensing System and Coast Guard Vessel Documentation Center.

Last reported at 2017-Sep-24 23:38 UTC. Time now 2017-Sep-25 00:43 UTC.
Position N 36°43' W 076°14'.

Length 22 m; draft 3 m.

Type: Tug. MMSI: 367473210.

Date/timePositionNaut miles runAvg speedWind from/ knotsBaromVisibWave heightAir tempDewpointWater temp
2017-Sep-24 23:38N 36°43' W 076°14'1 5.6
2017-Sep-24 23:30N 36°43' W 076°15'2 3.4
2017-Sep-24 23:00N 36°44' W 076°17'3 5.9
2017-Sep-24 22:30N 36°47' W 076°18'3 6.3
2017-Sep-24 22:01N 36°50' W 076°18'3 6.8
2017-Sep-24 21:30N 36°52' W 076°20'0 0.3
2017-Sep-24 21:00N 36°52' W 076°20'0 0.2
2017-Sep-24 20:18N 36°52' W 076°20'0 0.2
2017-Sep-24 20:00N 36°52' W 076°20'0 0.0
2017-Sep-24 19:30N 36°52' W 076°20'0 0.0
2017-Sep-24 19:00N 36°52' W 076°20'0 0.0
2017-Sep-24 18:30N 36°52' W 076°20'0 0.0
2017-Sep-24 18:00N 36°52' W 076°20'0 0.0
2017-Sep-24 17:30N 36°52' W 076°20'0 0.0
2017-Sep-24 17:00N 36°52' W 076°20'0 0.0
2017-Sep-24 16:30N 36°52' W 076°20'0 0.0
2017-Sep-24 16:01N 36°52' W 076°20'0 0.0
2017-Sep-24 15:30N 36°52' W 076°20'0 0.0
2017-Sep-24 15:00N 36°52' W 076°20'0 0.0
2017-Sep-24 14:30N 36°52' W 076°20'0 0.1
2017-Sep-24 14:00N 36°52' W 076°20'0 0.1
2017-Sep-24 13:30N 36°52' W 076°20'1 2.0
2017-Sep-24 13:00N 36°52' W 076°19'3 5.6
2017-Sep-24 12:30N 36°50' W 076°18'2 4.4
2017-Sep-24 12:00N 36°47' W 076°18'2 3.0
2017-Sep-24 11:30N 36°46' W 076°18'1 2.8
2017-Sep-24 11:00N 36°45' W 076°18'0 0.0
2017-Sep-24 08:14N 36°45' W 076°18'0 0.0
2017-Sep-24 07:42N 36°45' W 076°18'0 0.0
2017-Sep-24 07:22N 36°45' W 076°18'0 0.0
2017-Sep-24 06:57N 36°45' W 076°18'0 0.0
2017-Sep-24 06:29N 36°45' W 076°18'0 0.0
2017-Sep-24 05:56N 36°45' W 076°18'0 0.0
2017-Sep-24 05:29N 36°45' W 076°18'0 0.0
2017-Sep-24 05:00N 36°45' W 076°18'0 0.0
2017-Sep-24 04:02N 36°45' W 076°18'0 0.1
2017-Sep-24 04:00N 36°45' W 076°18'0 0.0
2017-Sep-24 03:23N 36°45' W 076°18'0 0.0
2017-Sep-24 02:42N 36°45' W 076°18'0 0.0
2017-Sep-24 02:13N 36°45' W 076°18'0 0.0
2017-Sep-24 02:00N 36°45' W 076°18'0 0.0
2017-Sep-24 01:27N 36°45' W 076°18'0 0.0
2017-Sep-24 00:58N 36°45' W 076°18'0 0.0
2017-Sep-24 00:01N 36°45' W 076°18'0 0.2
2017-Sep-24 00:00N 36°45' W 076°18'0 0.0
2017-Sep-23 21:16N 36°45' W 076°18'0 0.0
2017-Sep-23 20:54N 36°45' W 076°18'0 0.0
2017-Sep-23 20:30N 36°45' W 076°18'3 5.2
2017-Sep-23 20:00N 36°47' W 076°18'153 3.6
2017-Sep-22 02:00N 39°20' W 076°11'4 7.5
2017-Sep-22 01:30N 39°22' W 076°07'4 7.6
2017-Sep-22 01:00N 39°24' W 076°03'4 7.8
2017-Sep-22 00:30N 39°27' W 075°59'4 7.4
2017-Sep-22 00:00N 39°30' W 075°56'4 7.3
2017-Sep-21 23:30N 39°32' W 075°52'4 7.0
2017-Sep-21 23:00N 39°32' W 075°48'4 8.3
2017-Sep-21 22:30N 39°33' W 075°42'4 8.5
2017-Sep-21 22:00N 39°33' W 075°37'3 6.6
2017-Sep-21 21:30N 39°35' W 075°34'5 9.6
2017-Sep-21 21:00N 39°40' W 075°32'510.8
2017-Sep-21 20:30N 39°45' W 075°29'4 8.6
2017-Sep-21 20:01N 39°48' W 075°25'0 0.1
2017-Sep-21 19:30N 39°48' W 075°25'0 0.1
2017-Sep-21 19:00N 39°48' W 075°25'0 0.0
2017-Sep-21 18:30N 39°48' W 075°25'0 0.0
2017-Sep-21 18:00N 39°48' W 075°25'0 0.0
2017-Sep-21 17:30N 39°48' W 075°25'0 0.0
2017-Sep-21 17:00N 39°48' W 075°25'0 0.0
2017-Sep-21 16:30N 39°48' W 075°25'0 0.0
2017-Sep-21 16:00N 39°48' W 075°25'0 0.0
2017-Sep-21 15:30N 39°48' W 075°25'1 2.8
2017-Sep-21 15:00N 39°49' W 075°24'1 2.1
2017-Sep-21 14:30N 39°50' W 075°23'0 0.0
2017-Sep-21 14:00N 39°50' W 075°23'0 0.0
2017-Sep-21 13:30N 39°50' W 075°23'1 1.6
2017-Sep-21 13:00N 39°49' W 075°23'1 3.0
2017-Sep-21 12:30N 39°48' W 075°25'1 2.6
2017-Sep-21 12:00N 39°47' W 075°26'1 2.6
2017-Sep-21 11:30N 39°48' W 075°25'0 0.0
2017-Sep-21 11:01N 39°48' W 075°25'0 0.0
2017-Sep-21 10:30N 39°48' W 075°25'0 0.0
2017-Sep-21 10:01N 39°48' W 075°25'0 0.0
2017-Sep-21 09:30N 39°48' W 075°25'0 0.0
2017-Sep-21 09:00N 39°48' W 075°25'0 0.0
2017-Sep-21 08:30N 39°48' W 075°25'0 0.0
2017-Sep-21 08:00N 39°48' W 075°25'0 0.0
2017-Sep-21 07:30N 39°48' W 075°25'0 0.0
2017-Sep-21 07:00N 39°48' W 075°25'0 0.0
2017-Sep-21 06:30N 39°48' W 075°25'0 0.0
2017-Sep-21 06:00N 39°48' W 075°25'0 0.0
2017-Sep-21 05:30N 39°48' W 075°25'0 0.0
2017-Sep-21 05:00N 39°48' W 075°25'0 0.0
2017-Sep-21 04:30N 39°48' W 075°25'0 0.0
2017-Sep-21 04:00N 39°48' W 075°25'0 0.0
2017-Sep-21 03:30N 39°48' W 075°25'0 0.0
2017-Sep-21 03:00N 39°48' W 075°25'0 0.0
2017-Sep-21 02:30N 39°48' W 075°25'0 0.0
2017-Sep-21 02:00N 39°48' W 075°25'0 0.0
2017-Sep-20 22:51N 39°48' W 075°25'1 3.6
2017-Sep-20 22:30N 39°47' W 075°26'1 2.4
2017-Sep-20 22:01N 39°48' W 075°25'0 0.0
2017-Sep-20 21:30N 39°48' W 075°25'0 0.0
2017-Sep-20 21:00N 39°48' W 075°25'0 0.0
2017-Sep-20 20:30N 39°48' W 075°25'0 0.0
2017-Sep-20 20:00N 39°48' W 075°25'0 0.0
2017-Sep-20 19:31N 39°48' W 075°25'0 0.0
2017-Sep-20 19:00N 39°48' W 075°25'0 0.0
2017-Sep-20 18:30N 39°48' W 075°25'0 0.0
2017-Sep-20 18:01N 39°48' W 075°25'0 0.0
2017-Sep-20 17:30N 39°48' W 075°25'0 0.0
2017-Sep-20 17:00N 39°48' W 075°25'0 0.0
2017-Sep-20 16:30N 39°48' W 075°25'2 4.1
2017-Sep-20 16:00N 39°47' W 075°27'0 0.0
2017-Sep-20 15:30N 39°47' W 075°27'0 0.0
2017-Sep-20 15:00N 39°47' W 075°27'2 2.3
2017-Sep-20 14:00N 39°48' W 075°25'2 4.1
2017-Sep-20 13:31N 39°50' W 075°23'2 3.2
2017-Sep-20 13:00N 39°48' W 075°24'1 1.4
2017-Sep-20 12:30N 39°48' W 075°25'1 2.5
2017-Sep-20 12:00N 39°49' W 075°24'1 2.1
2017-Sep-20 11:31N 39°50' W 075°23'2 4.3
2017-Sep-20 11:01N 39°48' W 075°25'1 1.7
2017-Sep-20 10:31N 39°48' W 075°26'1 0.0
2017-Sep-19 19:30N 39°48' W 075°25'1 2.4
2017-Sep-19 19:00N 39°47' W 075°26'0 0.0
2017-Sep-19 18:31N 39°47' W 075°26'1 2.5
2017-Sep-19 18:01N 39°48' W 075°25'0 0.0
2017-Sep-19 17:31N 39°48' W 075°25'1 1.8
2017-Sep-19 17:01N 39°47' W 075°26'0 0.6
2017-Sep-19 16:30N 39°47' W 075°26'0 0.9
2017-Sep-19 16:01N 39°47' W 075°27'0 0.0
2017-Sep-19 15:31N 39°47' W 075°27'0 0.0
2017-Sep-19 15:00N 39°47' W 075°27'0 0.4
2017-Sep-19 14:31N 39°47' W 075°27'0 0.0
2017-Sep-19 14:00N 39°47' W 075°27'0 0.0
2017-Sep-19 13:31N 39°47' W 075°27'0 0.0
2017-Sep-19 13:01N 39°47' W 075°27'0 0.0
2017-Sep-19 12:31N 39°47' W 075°27'1 2.8
2017-Sep-19 12:00N 39°48' W 075°25'0 1.0
2017-Sep-19 11:31N 39°48' W 075°26'0 0.0
2017-Sep-18 23:23N 39°48' W 075°25'2 5.1
2017-Sep-18 23:01N 39°47' W 075°27'2 3.9
2017-Sep-18 22:30N 39°48' W 075°25'0 0.0
2017-Sep-18 22:01N 39°48' W 075°25'1 2.2
2017-Sep-18 21:31N 39°49' W 075°24'1 1.0
2017-Sep-18 21:00N 39°49' W 075°24'2 4.0
2017-Sep-18 20:30N 39°48' W 075°26'1 1.5
2017-Sep-18 20:01N 39°47' W 075°26'0 0.0
2017-Sep-18 19:30N 39°47' W 075°26'0 0.0
2017-Sep-18 19:00N 39°47' W 075°26'0 0.1
2017-Sep-18 18:31N 39°47' W 075°26'1 2.3
2017-Sep-18 18:00N 39°48' W 075°25'2 3.8
2017-Sep-18 17:30N 39°47' W 075°27'0 0.3
2017-Sep-18 17:01N 39°47' W 075°27'0 0.0
2017-Sep-18 16:30N 39°47' W 075°27'0 0.0
2017-Sep-18 16:00N 39°47' W 075°27'0 0.0
2017-Sep-18 15:31N 39°47' W 075°27'0 0.0
2017-Sep-18 15:00N 39°47' W 075°27'0 1.0
2017-Sep-18 14:30N 39°47' W 075°27'1 3.0
2017-Sep-18 14:01N 39°48' W 075°25'0 0.0
2017-Sep-18 13:31N 39°48' W 075°25'1 1.7
2017-Sep-18 13:00N 39°48' W 075°26'0 0.5
2017-Sep-18 12:31N 39°47' W 075°26'0 0.0
2017-Sep-18 12:01N 39°47' W 075°26'1 2.3
2017-Sep-18 11:30N 39°48' W 075°25'1 1.1
2017-Sep-18 11:00N 39°48' W 075°26'0 0.2
2017-Sep-18 10:30N 39°48' W 075°26'1 0.0
2017-Sep-17 22:00N 39°48' W 075°25'1 2.3
2017-Sep-17 21:31N 39°47' W 075°26'0 0.0
2017-Sep-17 21:01N 39°47' W 075°26'0 0.0
2017-Sep-17 20:31N 39°47' W 075°26'1 1.9
2017-Sep-17 20:01N 39°48' W 075°25'1 1.9
2017-Sep-17 19:31N 39°47' W 075°26'0 0.0
2017-Sep-17 19:01N 39°47' W 075°26'0 0.0
2017-Sep-17 18:31N 39°47' W 075°26'0 0.5
2017-Sep-17 18:01N 39°47' W 075°26'1 1.7
2017-Sep-17 17:31N 39°48' W 075°25'0 0.0
2017-Sep-17 17:01N 39°48' W 075°25'0 0.0
2017-Sep-17 16:30N 39°48' W 075°25'2 4.8
2017-Sep-17 16:01N 39°50' W 075°23'0 0.6
2017-Sep-17 15:31N 39°49' W 075°23'2 4.2
2017-Sep-17 15:00N 39°48' W 075°25'0 0.0
2017-Sep-17 14:30N 39°48' W 075°25'0 0.0
2017-Sep-17 14:00N 39°48' W 075°25'0 0.0
2017-Sep-17 13:31N 39°48' W 075°25'1 2.2
2017-Sep-17 13:00N 39°47' W 075°26'1 1.7
2017-Sep-17 12:30N 39°47' W 075°27'2 3.8
2017-Sep-17 12:00N 39°48' W 075°25'0 0.2
2017-Sep-17 11:30N 39°48' W 075°25'0 0.2
2017-Sep-17 11:00N 39°48' W 075°25'0 0.0
2017-Sep-16 22:38N 39°48' W 075°25'0 0.5
2017-Sep-16 22:31N 39°48' W 075°25'2 4.0
2017-Sep-16 22:00N 39°47' W 075°27'2 3.8
2017-Sep-16 21:30N 39°48' W 075°25'2 4.8
2017-Sep-16 21:00N 39°50' W 075°23'3 6.4
2017-Sep-16 20:30N 39°48' W 075°26'1 2.3
2017-Sep-16 20:00N 39°47' W 075°27'0 0.8
2017-Sep-16 19:30N 39°47' W 075°27'0 0.0
2017-Sep-16 19:00N 39°47' W 075°27'0 0.8
2017-Sep-16 18:30N 39°47' W 075°27'0 0.0
2017-Sep-16 18:00N 39°47' W 075°27'1 1.4
2017-Sep-16 17:30N 39°47' W 075°27'0 0.5
2017-Sep-16 17:00N 39°47' W 075°26'1 2.2
2017-Sep-16 16:30N 39°48' W 075°25'0 0.0
2017-Sep-16 16:00N 39°48' W 075°25'1 2.2
2017-Sep-16 15:30N 39°47' W 075°26'0 0.0
2017-Sep-16 15:00N 39°47' W 075°26'0 0.0
2017-Sep-16 14:30N 39°47' W 075°26'0 0.0
2017-Sep-16 14:01N 39°47' W 075°26'0 0.0
2017-Sep-16 13:31N 39°47' W 075°26'0 0.0
2017-Sep-16 13:00N 39°47' W 075°26'0 0.4
2017-Sep-16 12:31N 39°47' W 075°26'0 0.4
2017-Sep-16 12:01N 39°47' W 075°26'1 2.1
2017-Sep-16 11:31N 39°48' W 075°25'0 0.0
2017-Sep-16 11:00N 39°48' W 075°25'0 0.0
2017-Sep-16 00:14N 39°48' W 075°25'0 0.4
2017-Sep-16 00:00N 39°48' W 075°25'0 0.0
2017-Sep-15 23:30N 39°48' W 075°25'0 0.6
2017-Sep-15 23:00N 39°48' W 075°26'0 0.9
2017-Sep-15 22:30N 39°47' W 075°26'1 2.3
2017-Sep-15 22:00N 39°47' W 075°27'2 1.2
2017-Sep-15 20:28N 39°48' W 075°25'2 4.1
2017-Sep-15 20:00N 39°47' W 075°27'3 5.2
2017-Sep-15 19:30N 39°48' W 075°25'1 1.7
2017-Sep-15 19:00N 39°49' W 075°24'3 6.1
2017-Sep-15 18:30N 39°47' W 075°27'0 0.6
2017-Sep-15 18:01N 39°47' W 075°27'2 3.2
2017-Sep-15 17:30N 39°48' W 075°26'0 0.4
2017-Sep-15 17:00N 39°48' W 075°25'0 0.0
2017-Sep-15 16:30N 39°48' W 075°25'2 3.6
2017-Sep-15 16:00N 39°47' W 075°27'0 0.0
2017-Sep-15 15:30N 39°47' W 075°27'1 1.7
2017-Sep-15 15:01N 39°47' W 075°26'1 1.6
2017-Sep-15 14:30N 39°47' W 075°27'0 0.0
2017-Sep-15 14:00N 39°47' W 075°27'0 0.0
2017-Sep-15 13:31N 39°47' W 075°27'1 2.4
2017-Sep-15 13:01N 39°48' W 075°26'0 0.7
2017-Sep-15 12:30N 39°47' W 075°26'0 0.0
2017-Sep-15 12:01N 39°47' W 075°26'1 1.9
2017-Sep-15 11:31N 39°48' W 075°25'0 0.0
2017-Sep-15 11:00N 39°48' W 075°25'  
Track history (hours):
 
Tides and Currents Weather Stations Pressure Air Temp Water Temp Dewpoint Dewpoint Depression Visibility Wind Speed Wind Dir Waves Ship Positions

Captain Ed

Owner: Norfolk Dredging Company, Chesapeake, VA. More information available from US FCC via Universal Licensing System and Coast Guard Vessel Documentation Center.

Last reported at 2017-Sep-24 23:38 UTC. Time now 2017-Sep-25 00:43 UTC.
Position N 36°43' W 076°14'.

Length 22 m; draft 3 m.

Type: Tug. MMSI: 367473210.

Date/timePositionNaut miles runAvg speedWind from/ knotsBaromVisibWave heightAir tempDewpointWater temp
2017-Sep-24 23:38N 36°43' W 076°14'1 5.6
2017-Sep-24 23:30N 36°43' W 076°15'2 3.4
2017-Sep-24 23:00N 36°44' W 076°17'3 5.9
2017-Sep-24 22:30N 36°47' W 076°18'3 6.3
2017-Sep-24 22:01N 36°50' W 076°18'3 6.8
2017-Sep-24 21:30N 36°52' W 076°20'0 0.3
2017-Sep-24 21:00N 36°52' W 076°20'0 0.2
2017-Sep-24 20:18N 36°52' W 076°20'0 0.2
2017-Sep-24 20:00N 36°52' W 076°20'0 0.0
2017-Sep-24 19:30N 36°52' W 076°20'0 0.0
2017-Sep-24 19:00N 36°52' W 076°20'0 0.0
2017-Sep-24 18:30N 36°52' W 076°20'0 0.0
2017-Sep-24 18:00N 36°52' W 076°20'0 0.0
2017-Sep-24 17:30N 36°52' W 076°20'0 0.0
2017-Sep-24 17:00N 36°52' W 076°20'0 0.0
2017-Sep-24 16:30N 36°52' W 076°20'0 0.0
2017-Sep-24 16:01N 36°52' W 076°20'0 0.0
2017-Sep-24 15:30N 36°52' W 076°20'0 0.0
2017-Sep-24 15:00N 36°52' W 076°20'0 0.0
2017-Sep-24 14:30N 36°52' W 076°20'0 0.1
2017-Sep-24 14:00N 36°52' W 076°20'0 0.1
2017-Sep-24 13:30N 36°52' W 076°20'1 2.0
2017-Sep-24 13:00N 36°52' W 076°19'3 5.6
2017-Sep-24 12:30N 36°50' W 076°18'2 4.4
2017-Sep-24 12:00N 36°47' W 076°18'2 3.0
2017-Sep-24 11:30N 36°46' W 076°18'1 2.8
2017-Sep-24 11:00N 36°45' W 076°18'0 0.0
2017-Sep-24 08:14N 36°45' W 076°18'0 0.0
2017-Sep-24 07:42N 36°45' W 076°18'0 0.0
2017-Sep-24 07:22N 36°45' W 076°18'0 0.0
2017-Sep-24 06:57N 36°45' W 076°18'0 0.0
2017-Sep-24 06:29N 36°45' W 076°18'0 0.0
2017-Sep-24 05:56N 36°45' W 076°18'0 0.0
2017-Sep-24 05:29N 36°45' W 076°18'0 0.0
2017-Sep-24 05:00N 36°45' W 076°18'0 0.0
2017-Sep-24 04:02N 36°45' W 076°18'0 0.1
2017-Sep-24 04:00N 36°45' W 076°18'0 0.0
2017-Sep-24 03:23N 36°45' W 076°18'0 0.0
2017-Sep-24 02:42N 36°45' W 076°18'0 0.0
2017-Sep-24 02:13N 36°45' W 076°18'0 0.0
2017-Sep-24 02:00N 36°45' W 076°18'0 0.0
2017-Sep-24 01:27N 36°45' W 076°18'0 0.0
2017-Sep-24 00:58N 36°45' W 076°18'0 0.0
2017-Sep-24 00:01N 36°45' W 076°18'0 0.2
2017-Sep-24 00:00N 36°45' W 076°18'0 0.0
2017-Sep-23 21:16N 36°45' W 076°18'0 0.0
2017-Sep-23 20:54N 36°45' W 076°18'0 0.0
2017-Sep-23 20:30N 36°45' W 076°18'3 5.2
2017-Sep-23 20:00N 36°47' W 076°18'153 3.6
2017-Sep-22 02:00N 39°20' W 076°11'4 7.5
2017-Sep-22 01:30N 39°22' W 076°07'4 7.6
2017-Sep-22 01:00N 39°24' W 076°03'4 7.8
2017-Sep-22 00:30N 39°27' W 075°59'4 7.4
2017-Sep-22 00:00N 39°30' W 075°56'4 7.3
2017-Sep-21 23:30N 39°32' W 075°52'4 7.0
2017-Sep-21 23:00N 39°32' W 075°48'4 8.3
2017-Sep-21 22:30N 39°33' W 075°42'4 8.5
2017-Sep-21 22:00N 39°33' W 075°37'3 6.6
2017-Sep-21 21:30N 39°35' W 075°34'5 9.6
2017-Sep-21 21:00N 39°40' W 075°32'510.8
2017-Sep-21 20:30N 39°45' W 075°29'4 8.6
2017-Sep-21 20:01N 39°48' W 075°25'0 0.1
2017-Sep-21 19:30N 39°48' W 075°25'0 0.1
2017-Sep-21 19:00N 39°48' W 075°25'0 0.0
2017-Sep-21 18:30N 39°48' W 075°25'0 0.0
2017-Sep-21 18:00N 39°48' W 075°25'0 0.0
2017-Sep-21 17:30N 39°48' W 075°25'0 0.0
2017-Sep-21 17:00N 39°48' W 075°25'0 0.0
2017-Sep-21 16:30N 39°48' W 075°25'0 0.0
2017-Sep-21 16:00N 39°48' W 075°25'0 0.0
2017-Sep-21 15:30N 39°48' W 075°25'1 2.8
2017-Sep-21 15:00N 39°49' W 075°24'1 2.1
2017-Sep-21 14:30N 39°50' W 075°23'0 0.0
2017-Sep-21 14:00N 39°50' W 075°23'0 0.0
2017-Sep-21 13:30N 39°50' W 075°23'1 1.6
2017-Sep-21 13:00N 39°49' W 075°23'1 3.0
2017-Sep-21 12:30N 39°48' W 075°25'1 2.6
2017-Sep-21 12:00N 39°47' W 075°26'1 2.6
2017-Sep-21 11:30N 39°48' W 075°25'0 0.0
2017-Sep-21 11:01N 39°48' W 075°25'0 0.0
2017-Sep-21 10:30N 39°48' W 075°25'0 0.0
2017-Sep-21 10:01N 39°48' W 075°25'0 0.0
2017-Sep-21 09:30N 39°48' W 075°25'0 0.0
2017-Sep-21 09:00N 39°48' W 075°25'0 0.0
2017-Sep-21 08:30N 39°48' W 075°25'0 0.0
2017-Sep-21 08:00N 39°48' W 075°25'0 0.0
2017-Sep-21 07:30N 39°48' W 075°25'0 0.0
2017-Sep-21 07:00N 39°48' W 075°25'0 0.0
2017-Sep-21 06:30N 39°48' W 075°25'0 0.0
2017-Sep-21 06:00N 39°48' W 075°25'0 0.0
2017-Sep-21 05:30N 39°48' W 075°25'0 0.0
2017-Sep-21 05:00N 39°48' W 075°25'0 0.0
2017-Sep-21 04:30N 39°48' W 075°25'0 0.0
2017-Sep-21 04:00N 39°48' W 075°25'0 0.0
2017-Sep-21 03:30N 39°48' W 075°25'0 0.0
2017-Sep-21 03:00N 39°48' W 075°25'0 0.0
2017-Sep-21 02:30N 39°48' W 075°25'0 0.0
2017-Sep-21 02:00N 39°48' W 075°25'0 0.0
2017-Sep-20 22:51N 39°48' W 075°25'1 3.6
2017-Sep-20 22:30N 39°47' W 075°26'1 2.4
2017-Sep-20 22:01N 39°48' W 075°25'0 0.0
2017-Sep-20 21:30N 39°48' W 075°25'0 0.0
2017-Sep-20 21:00N 39°48' W 075°25'0 0.0
2017-Sep-20 20:30N 39°48' W 075°25'0 0.0
2017-Sep-20 20:00N 39°48' W 075°25'0 0.0
2017-Sep-20 19:31N 39°48' W 075°25'0 0.0
2017-Sep-20 19:00N 39°48' W 075°25'0 0.0
2017-Sep-20 18:30N 39°48' W 075°25'0 0.0
2017-Sep-20 18:01N 39°48' W 075°25'0 0.0
2017-Sep-20 17:30N 39°48' W 075°25'0 0.0
2017-Sep-20 17:00N 39°48' W 075°25'0 0.0
2017-Sep-20 16:30N 39°48' W 075°25'2 4.1
2017-Sep-20 16:00N 39°47' W 075°27'0 0.0
2017-Sep-20 15:30N 39°47' W 075°27'0 0.0
2017-Sep-20 15:00N 39°47' W 075°27'2 2.3
2017-Sep-20 14:00N 39°48' W 075°25'2 4.1
2017-Sep-20 13:31N 39°50' W 075°23'2 3.2
2017-Sep-20 13:00N 39°48' W 075°24'1 1.4
2017-Sep-20 12:30N 39°48' W 075°25'1 2.5
2017-Sep-20 12:00N 39°49' W 075°24'1 2.1
2017-Sep-20 11:31N 39°50' W 075°23'2 4.3
2017-Sep-20 11:01N 39°48' W 075°25'1 1.7
2017-Sep-20 10:31N 39°48' W 075°26'1 0.0
2017-Sep-19 19:30N 39°48' W 075°25'1 2.4
2017-Sep-19 19:00N 39°47' W 075°26'0 0.0
2017-Sep-19 18:31N 39°47' W 075°26'1 2.5
2017-Sep-19 18:01N 39°48' W 075°25'0 0.0
2017-Sep-19 17:31N 39°48' W 075°25'1 1.8
2017-Sep-19 17:01N 39°47' W 075°26'0 0.6
2017-Sep-19 16:30N 39°47' W 075°26'0 0.9
2017-Sep-19 16:01N 39°47' W 075°27'0 0.0
2017-Sep-19 15:31N 39°47' W 075°27'0 0.0
2017-Sep-19 15:00N 39°47' W 075°27'0 0.4
2017-Sep-19 14:31N 39°47' W 075°27'0 0.0
2017-Sep-19 14:00N 39°47' W 075°27'0 0.0
2017-Sep-19 13:31N 39°47' W 075°27'0 0.0
2017-Sep-19 13:01N 39°47' W 075°27'0 0.0
2017-Sep-19 12:31N 39°47' W 075°27'1 2.8
2017-Sep-19 12:00N 39°48' W 075°25'0 1.0
2017-Sep-19 11:31N 39°48' W 075°26'0 0.0
2017-Sep-18 23:23N 39°48' W 075°25'2 5.1
2017-Sep-18 23:01N 39°47' W 075°27'2 3.9
2017-Sep-18 22:30N 39°48' W 075°25'0 0.0
2017-Sep-18 22:01N 39°48' W 075°25'1 2.2
2017-Sep-18 21:31N 39°49' W 075°24'1 1.0
2017-Sep-18 21:00N 39°49' W 075°24'2 4.0
2017-Sep-18 20:30N 39°48' W 075°26'1 1.5
2017-Sep-18 20:01N 39°47' W 075°26'0 0.0
2017-Sep-18 19:30N 39°47' W 075°26'0 0.0
2017-Sep-18 19:00N 39°47' W 075°26'0 0.1
2017-Sep-18 18:31N 39°47' W 075°26'1 2.3
2017-Sep-18 18:00N 39°48' W 075°25'2 3.8
2017-Sep-18 17:30N 39°47' W 075°27'0 0.3
2017-Sep-18 17:01N 39°47' W 075°27'0 0.0
2017-Sep-18 16:30N 39°47' W 075°27'0 0.0
2017-Sep-18 16:00N 39°47' W 075°27'0 0.0
2017-Sep-18 15:31N 39°47' W 075°27'0 0.0
2017-Sep-18 15:00N 39°47' W 075°27'0 1.0
2017-Sep-18 14:30N 39°47' W 075°27'1 3.0
2017-Sep-18 14:01N 39°48' W 075°25'0 0.0
2017-Sep-18 13:31N 39°48' W 075°25'1 1.7
2017-Sep-18 13:00N 39°48' W 075°26'0 0.5
2017-Sep-18 12:31N 39°47' W 075°26'0 0.0
2017-Sep-18 12:01N 39°47' W 075°26'1 2.3
2017-Sep-18 11:30N 39°48' W 075°25'1 1.1
2017-Sep-18 11:00N 39°48' W 075°26'0 0.2
2017-Sep-18 10:30N 39°48' W 075°26'1 0.0
2017-Sep-17 22:00N 39°48' W 075°25'1 2.3
2017-Sep-17 21:31N 39°47' W 075°26'0 0.0
2017-Sep-17 21:01N 39°47' W 075°26'0 0.0
2017-Sep-17 20:31N 39°47' W 075°26'1 1.9
2017-Sep-17 20:01N 39°48' W 075°25'1 1.9
2017-Sep-17 19:31N 39°47' W 075°26'0 0.0
2017-Sep-17 19:01N 39°47' W 075°26'0 0.0
2017-Sep-17 18:31N 39°47' W 075°26'0 0.5
2017-Sep-17 18:01N 39°47' W 075°26'1 1.7
2017-Sep-17 17:31N 39°48' W 075°25'0 0.0
2017-Sep-17 17:01N 39°48' W 075°25'0 0.0
2017-Sep-17 16:30N 39°48' W 075°25'2 4.8
2017-Sep-17 16:01N 39°50' W 075°23'0 0.6
2017-Sep-17 15:31N 39°49' W 075°23'2 4.2
2017-Sep-17 15:00N 39°48' W 075°25'0 0.0
2017-Sep-17 14:30N 39°48' W 075°25'0 0.0
2017-Sep-17 14:00N 39°48' W 075°25'0 0.0
2017-Sep-17 13:31N 39°48' W 075°25'1 2.2
2017-Sep-17 13:00N 39°47' W 075°26'1 1.7
2017-Sep-17 12:30N 39°47' W 075°27'2 3.8
2017-Sep-17 12:00N 39°48' W 075°25'0 0.2
2017-Sep-17 11:30N 39°48' W 075°25'0 0.2
2017-Sep-17 11:00N 39°48' W 075°25'0 0.0
2017-Sep-16 22:38N 39°48' W 075°25'0 0.5
2017-Sep-16 22:31N 39°48' W 075°25'2 4.0
2017-Sep-16 22:00N 39°47' W 075°27'2 3.8
2017-Sep-16 21:30N 39°48' W 075°25'2 4.8
2017-Sep-16 21:00N 39°50' W 075°23'3 6.4
2017-Sep-16 20:30N 39°48' W 075°26'1 2.3
2017-Sep-16 20:00N 39°47' W 075°27'0 0.8
2017-Sep-16 19:30N 39°47' W 075°27'0 0.0
2017-Sep-16 19:00N 39°47' W 075°27'0 0.8
2017-Sep-16 18:30N 39°47' W 075°27'0 0.0
2017-Sep-16 18:00N 39°47' W 075°27'1 1.4
2017-Sep-16 17:30N 39°47' W 075°27'0 0.5
2017-Sep-16 17:00N 39°47' W 075°26'1 2.2
2017-Sep-16 16:30N 39°48' W 075°25'0 0.0
2017-Sep-16 16:00N 39°48' W 075°25'1 2.2
2017-Sep-16 15:30N 39°47' W 075°26'0 0.0
2017-Sep-16 15:00N 39°47' W 075°26'0 0.0
2017-Sep-16 14:30N 39°47' W 075°26'0 0.0
2017-Sep-16 14:01N 39°47' W 075°26'0 0.0
2017-Sep-16 13:31N 39°47' W 075°26'0 0.0
2017-Sep-16 13:00N 39°47' W 075°26'0 0.4
2017-Sep-16 12:31N 39°47' W 075°26'0 0.4
2017-Sep-16 12:01N 39°47' W 075°26'1 2.1
2017-Sep-16 11:31N 39°48' W 075°25'0 0.0
2017-Sep-16 11:00N 39°48' W 075°25'0 0.0
2017-Sep-16 00:14N 39°48' W 075°25'0 0.4
2017-Sep-16 00:00N 39°48' W 075°25'0 0.0
2017-Sep-15 23:30N 39°48' W 075°25'0 0.6
2017-Sep-15 23:00N 39°48' W 075°26'0 0.9
2017-Sep-15 22:30N 39°47' W 075°26'1 2.3
2017-Sep-15 22:00N 39°47' W 075°27'2 1.2
2017-Sep-15 20:28N 39°48' W 075°25'2 4.1
2017-Sep-15 20:00N 39°47' W 075°27'3 5.2
2017-Sep-15 19:30N 39°48' W 075°25'1 1.7
2017-Sep-15 19:00N 39°49' W 075°24'3 6.1
2017-Sep-15 18:30N 39°47' W 075°27'0 0.6
2017-Sep-15 18:01N 39°47' W 075°27'2 3.2
2017-Sep-15 17:30N 39°48' W 075°26'0 0.4
2017-Sep-15 17:00N 39°48' W 075°25'0 0.0
2017-Sep-15 16:30N 39°48' W 075°25'2 3.6
2017-Sep-15 16:00N 39°47' W 075°27'0 0.0
2017-Sep-15 15:30N 39°47' W 075°27'1 1.7
2017-Sep-15 15:01N 39°47' W 075°26'1 1.6
2017-Sep-15 14:30N 39°47' W 075°27'0 0.0
2017-Sep-15 14:00N 39°47' W 075°27'0 0.0
2017-Sep-15 13:31N 39°47' W 075°27'1 2.4
2017-Sep-15 13:01N 39°48' W 075°26'0 0.7
2017-Sep-15 12:30N 39°47' W 075°26'0 0.0
2017-Sep-15 12:01N 39°47' W 075°26'1 1.9
2017-Sep-15 11:31N 39°48' W 075°25'0 0.0
2017-Sep-15 11:00N 39°48' W 075°25'  

Dump ship's entire track history